Latest Weather Observations for Beerburrum

IDQ60901

Issued at 6:25 pm EST Friday 24 October 2014 (issued every 10 minutes, with the page automatically refreshed every 10 minutes)

About weather observations | Map of Brisbane area stations | Latest observations for Brisbane area | Other Formats
Station Details ID: 040284 Name: BEERBURRUM FOREST STATION Lat: -26.96 Lon: 152.96 Height: 48.0 m
Data from the previous 72 hours. | See also: Recent months at Beerburrum
Date/Time
EST
Tmp

°C
App
Tmp
°C
Dew
Point
°C
Rel
Hum
%
Delta-T

°C
Wind Press
QNH
hPa
Press
MSL
hPa
Rain
since
9 am
mm
Dir
 
Spd
km/h
Gust
km/h
Spd
kts
Gust
kts
24/06:00pm 20.4 19.5 13.6 65 3.9 NNE 11 19 6 10 - - 0.0
24/05:30pm 21.3 19.9 13.5 61 4.5 NNE 13 24 7 13 - - 0.0
24/05:00pm 22.4 21.8 13.5 57 5.2 NNE 9 17 5 9 - - 0.0
24/04:30pm 23.5 23.0 13.9 55 5.6 NE 9 20 5 11 - - 0.0
24/04:00pm 24.2 23.8 14.0 53 6.0 ENE 9 17 5 9 - - 0.0
24/03:30pm 24.8 24.5 14.3 52 6.2 E 9 19 5 10 - - 0.0
24/03:00pm 24.8 24.0 14.0 51 6.4 ENE 11 20 6 11 - - 0.0
24/02:30pm 25.7 25.5 14.8 51 6.5 E 9 17 5 9 - - 0.0
24/02:00pm 25.6 25.1 15.0 52 6.4 E 11 20 6 11 - - 0.0
24/01:30pm 25.4 24.9 13.9 49 6.8 ENE 9 20 5 11 - - 0.0
24/01:00pm 25.7 24.6 13.2 46 7.3 E 11 19 6 10 - - 0.0
24/12:30pm 26.0 25.5 13.8 47 7.2 E 9 17 5 9 - - 0.0
24/12:00pm 26.4 26.4 15.1 49 6.8 E 9 17 5 9 - - 0.0
24/11:30am 25.2 25.0 13.7 49 6.8 ESE 7 13 4 7 - - 0.0
24/11:00am 25.6 25.6 14.1 49 6.8 N 7 15 4 8 - - 0.0
24/10:30am 23.4 22.7 13.3 53 5.9 N 9 15 5 8 - - 0.0
24/10:00am 24.2 23.8 13.1 50 6.4 NNE 7 11 4 6 - - 0.0
24/09:30am 23.1 22.8 13.3 54 5.7 NNW 7 15 4 8 - - 0.0
24/09:00am 22.1 21.6 12.1 53 5.6 NNW 6 13 3 7 - - 0.0
24/08:30am 22.5 21.9 12.4 52 5.7 N 7 13 4 7 - - 0.0
24/08:00am 21.8 21.7 13.2 58 4.9 NNE 6 9 3 5 - - 0.0
24/07:30am 20.9 20.9 13.6 63 4.2 S 6 9 3 5 - - 0.0
24/07:00am 18.5 20.0 14.6 78 2.3 CALM 0 2 0 1 - - 0.0
24/06:30am 15.1 16.1 13.3 89 1.0 CALM 0 0 0 0 - - 0.0
24/06:00am 12.6 13.1 11.5 93 0.6 CALM 0 0 0 0 - - 0.0
24/05:30am 12.0 12.2 10.7 92 0.7 CALM 0 0 0 0 - - 0.0
24/05:00am 12.3 12.6 10.9 91 0.7 CALM 0 0 0 0 - - 0.0
24/04:30am 12.3 12.6 10.9 91 0.7 CALM 0 0 0 0 - - 0.0
24/04:00am 12.5 12.9 11.1 91 0.7 CALM 0 0 0 0 - - 0.0
24/03:30am 12.6 13.0 11.2 91 0.7 CALM 0 0 0 0 - - 0.0
24/03:00am 12.9 13.4 11.5 91 0.7 CALM 0 0 0 0 - - 0.0
24/02:30am 12.9 13.3 11.3 90 0.8 CALM 0 0 0 0 - - 0.0
24/02:00am 13.2 13.7 11.6 90 0.9 CALM 0 0 0 0 - - 0.0
24/01:30am 13.4 14.0 11.8 90 0.9 CALM 0 0 0 0 - - 0.0
24/01:00am 13.7 14.3 11.9 89 1.0 CALM 0 0 0 0 - - 0.0
24/12:30am 14.2 15.0 12.4 89 1.0 CALM 0 0 0 0 - - 0.0
24/12:00am 14.3 15.0 12.3 88 1.1 CALM 0 0 0 0 - - 0.0
 
Date/Time
EST
Tmp

°C
App
Tmp
°C
Dew
Point
°C
Rel
Hum
%
Delta-T

°C
Wind Press
QNH
hPa
Press
MSL
hPa
Rain
since
9 am
mm
Dir
 
Spd
km/h
Gust
km/h
Spd
kts
Gust
kts
23/11:30pm 14.7 15.5 12.6 87 1.2 CALM 0 0 0 0 - - 0.0
23/11:00pm 15.3 16.2 12.8 85 1.4 CALM 0 0 0 0 - - 0.0
23/10:30pm 15.8 16.8 13.1 84 1.5 CALM 0 0 0 0 - - 0.0
23/10:00pm 15.9 16.8 12.8 82 1.7 CALM 0 0 0 0 - - 0.0
23/09:30pm 16.3 17.2 13.0 81 1.8 CALM 0 0 0 0 - - 0.0
23/09:00pm 16.9 17.9 13.2 79 2.1 CALM 0 0 0 0 - - 0.0
23/08:30pm 17.0 18.0 13.1 78 2.2 CALM 0 0 0 0 - - 0.0
23/08:00pm 17.4 18.4 13.1 76 2.4 CALM 0 0 0 0 - - 0.0
23/07:30pm 17.8 17.6 12.9 73 2.7 NNE 6 7 3 4 - - 0.0
23/07:00pm 18.3 18.2 13.2 72 2.9 NNE 6 9 3 5 - - 0.0
23/06:30pm 19.0 18.8 13.0 68 3.4 NE 6 11 3 6 - - 0.0
23/06:00pm 19.7 19.4 12.7 64 3.9 NE 6 13 3 7 - - 0.0
23/05:30pm 21.2 20.3 12.6 58 4.9 NE 9 15 5 8 - - 0.0
23/05:00pm 22.3 21.2 13.1 56 5.3 NE 11 20 6 11 - - 0.0
23/04:30pm 23.3 22.2 13.2 53 5.8 ENE 11 19 6 10 - - 0.0
23/04:00pm 24.3 23.8 13.8 52 6.2 ENE 9 15 5 8 - - 0.0
23/03:30pm 24.2 22.9 12.5 48 6.7 NE 11 20 6 11 - - 0.0
23/03:00pm 24.8 24.3 12.7 47 7.0 E 7 17 4 9 - - 0.0
23/02:30pm 24.5 23.2 12.5 47 6.9 NE 11 17 6 9 - - 0.0
23/02:00pm 25.0 24.0 12.2 44 7.3 ENE 9 15 5 8 - - 0.0
23/01:30pm 25.2 24.0 12.8 46 7.2 E 11 19 6 10 - - 0.0
23/01:00pm 25.4 24.3 11.9 43 7.7 NNE 9 17 5 9 - - 0.0
23/12:30pm 25.8 24.7 11.9 42 8.0 ENE 9 15 5 8 - - 0.0
23/12:00pm 25.8 25.0 11.6 41 8.1 ENE 7 11 4 6 - - 0.0
23/11:30am 24.6 23.7 11.2 43 7.5 E 7 11 4 6 - - 0.0
23/11:00am 24.5 23.7 11.8 45 7.2 NE 7 13 4 7 - - 0.0
23/10:30am 23.3 22.3 11.0 46 6.9 NNW 7 15 4 8 - - 0.0
23/10:00am 23.1 22.3 10.9 46 6.8 NE 6 11 3 6 - - 0.0
23/09:30am 22.6 22.2 11.0 48 6.4 ESE 4 9 2 5 - - 0.0
23/09:00am 21.2 20.5 11.5 54 5.4 N 6 7 3 4 - - 0.0
23/08:30am 21.2 20.4 11.2 53 5.5 ESE 6 9 3 5 - - 0.0
23/08:00am 20.7 20.0 11.9 57 4.9 SSE 7 11 4 6 - - 0.0
23/07:30am 19.5 20.0 13.9 70 3.2 SW 4 7 2 4 - - 0.0
23/07:00am 17.7 18.9 13.8 78 2.2 CALM 0 0 0 0 - - 0.0
23/06:30am 14.7 15.7 13.2 91 0.8 CALM 0 0 0 0 - - 0.0
23/06:00am 11.9 12.2 11.0 94 0.5 CALM 0 0 0 0 - - 0.0
23/05:30am 11.0 11.0 9.8 92 0.6 CALM 0 0 0 0 - - 0.0
23/05:00am 10.9 10.8 9.5 91 0.7 CALM 0 0 0 0 - - 0.0
23/04:30am 11.2 11.2 9.9 92 0.7 CALM 0 0 0 0 - - 0.0
23/04:00am 11.5 11.6 10.2 92 0.7 CALM 0 0 0 0 - - 0.0
23/03:30am 12.1 12.0 10.7 91 0.7 SSW 2 6 1 3 - - 0.0
23/03:00am 12.6 13.0 11.2 91 0.7 CALM 0 0 0 0 - - 0.0
23/02:30am 13.1 13.6 11.7 91 0.7 CALM 0 0 0 0 - - 0.0
23/02:00am 13.5 14.2 12.1 91 0.8 CALM 0 0 0 0 - - 0.0
23/01:30am 13.3 13.9 11.9 91 0.8 CALM 0 0 0 0 - - 0.0
23/01:00am 13.4 14.0 11.8 90 0.9 CALM 0 0 0 0 - - 0.0
23/12:30am 13.9 14.4 11.6 86 1.2 CALM 0 0 0 0 - - 0.0
23/12:00am 14.8 15.6 12.7 87 1.2 CALM 0 0 0 0 - - 0.0
 
Date/Time
EST
Tmp

°C
App
Tmp
°C
Dew
Point
°C
Rel
Hum
%
Delta-T

°C
Wind Press
QNH
hPa
Press
MSL
hPa
Rain
since
9 am
mm
Dir
 
Spd
km/h
Gust
km/h
Spd
kts
Gust
kts
22/11:30pm 14.9 15.6 12.2 84 1.5 CALM 0 0 0 0 - - 0.0
22/11:00pm 15.6 16.4 12.7 83 1.6 CALM 0 0 0 0 - - 0.0
22/10:30pm 16.6 17.8 13.7 83 1.6 CALM 0 0 0 0 - - 0.0
22/10:00pm 16.7 17.9 13.8 83 1.6 CALM 0 0 0 0 - - 0.0
22/09:30pm 16.5 17.5 13.2 81 1.8 CALM 0 0 0 0 - - 0.0
22/09:00pm 16.3 17.4 13.6 84 1.5 CALM 0 0 0 0 - - 0.0
22/08:30pm 15.8 16.7 12.9 83 1.6 CALM 0 0 0 0 - - 0.0
22/08:00pm 15.8 16.6 12.5 81 1.8 CALM 0 0 0 0 - - 0.0
22/07:30pm 16.0 16.8 12.4 79 2.0 CALM 0 0 0 0 - - 0.0
22/07:00pm 16.5 17.2 12.1 75 2.4 CALM 0 4 0 2 - - 0.0
22/06:30pm 17.3 17.9 11.8 70 3.0 CALM 0 0 0 0 - - 0.0
22/06:00pm 18.8 19.0 11.9 64 3.8 ESE 2 9 1 5 - - 0.0
22/05:30pm 20.1 18.9 11.6 58 4.7 ESE 9 17 5 9 - - 0.0
22/05:00pm 21.1 20.4 11.4 54 5.4 ESE 6 13 3 7 - - 0.0
22/04:30pm 21.1 20.2 11.4 54 5.4 ESE 7 15 4 8 - - 0.0
22/04:00pm 22.1 21.2 11.5 51 5.9 ESE 7 13 4 7 - - 0.0
22/03:30pm 22.0 20.7 11.1 50 6.0 ESE 9 19 5 10 - - 0.0
22/03:00pm 22.1 20.7 10.9 49 6.2 ESE 9 17 5 9 - - 0.0
22/02:30pm 22.5 21.5 12.4 52 5.7 E 9 19 5 10 - - 0.0
22/02:00pm 22.8 21.7 12.1 51 6.1 E 9 22 5 12 - - 0.0
22/01:30pm 22.6 21.7 12.5 53 5.8 SE 9 19 5 10 - - 0.0
22/01:00pm 22.7 21.3 10.8 47 6.6 SE 9 20 5 11 - - 0.0
22/12:30pm 23.1 21.7 10.9 46 6.8 E 9 20 5 11 - - 0.0
22/12:00pm 22.7 21.2 12.0 50 6.0 SSE 11 20 6 11 - - 0.0
22/11:30am 22.6 21.4 11.7 50 6.1 ESE 9 22 5 12 - - 0.0
22/11:00am 22.2 20.4 10.7 48 6.3 SSE 11 24 6 13 - - 0.0
22/10:30am 22.7 21.5 12.9 54 5.6 SSE 11 20 6 11 - - 0.0
22/10:00am 21.8 19.5 10.3 48 6.3 S 13 22 7 12 - - 0.0
22/09:30am 21.5 20.4 12.1 55 5.3 SSE 9 20 5 11 - - 0.0
22/09:00am 20.9 19.8 12.1 57 4.9 SSE 9 15 5 8 - - 0.8
22/08:30am 20.6 19.2 12.3 59 4.7 SSE 11 22 6 12 - - 0.8
22/08:00am 20.3 20.0 13.3 64 4.0 S 7 13 4 7 - - 0.8
22/07:30am 19.3 18.7 13.5 69 3.3 SSW 9 17 5 9 - - 0.8
22/07:00am 18.3 18.0 13.4 73 2.8 SW 7 15 4 8 - - 0.8
22/06:30am 16.6 16.6 13.5 82 1.7 SSW 6 11 3 6 - - 0.8
22/06:00am 15.6 15.5 13.4 87 1.2 WSW 6 9 3 5 - - 0.8
22/05:30am 14.9 14.8 13.3 90 0.9 SW 6 6 3 3 - - 0.6
22/05:00am 14.8 15.4 13.0 89 1.0 SW 2 6 1 3 - - 0.6
22/04:30am 14.9 14.8 13.4 91 0.8 SW 6 7 3 4 - - 0.6
22/04:00am 14.6 14.7 12.8 89 1.0 SW 4 6 2 3 - - 0.6
22/03:30am 15.3 15.6 13.5 89 1.0 SSW 4 7 2 4 - - 0.6
22/03:00am 15.5 16.8 14.0 91 0.8 CALM 0 0 0 0 - - 0.6
22/02:30am 15.9 15.8 13.9 88 1.1 S 7 19 4 10 - - 0.6
22/02:00am 15.6 16.5 14.0 90 0.9 SSW 2 7 1 4 - - 0.6
22/01:30am 15.9 16.4 14.1 89 1.0 S 4 9 2 5 - - 0.6
22/01:00am 15.8 15.9 13.8 88 1.1 SSW 6 9 3 5 - - 0.4
22/12:30am 16.0 16.6 14.2 89 1.0 SW 4 7 2 4 - - 0.4
22/12:00am 16.5 16.5 14.2 86 1.3 S 7 19 4 10 - - 0.4
 
Date/Time
EST
Tmp

°C
App
Tmp
°C
Dew
Point
°C
Rel
Hum
%
Delta-T

°C
Wind Press
QNH
hPa
Press
MSL
hPa
Rain
since
9 am
mm
Dir
 
Spd
km/h
Gust
km/h
Spd
kts
Gust
kts
21/11:30pm 17.9 17.7 13.6 76 2.4 S 7 13 4 7 - - 0.2
21/11:00pm 17.9 18.0 13.8 77 2.3 SSW 6 9 3 5 - - 0.2
21/10:30pm 18.5 18.4 14.0 75 2.6 S 7 15 4 8 - - 0.2
21/10:00pm 19.2 18.8 14.0 72 3.0 S 9 19 5 10 - - 0.2
21/09:30pm 19.3 18.8 13.7 70 3.2 S 9 17 5 9 - - 0.2
21/09:00pm 19.4 18.6 14.0 71 3.1 S 11 26 6 14 - - 0.2
21/08:30pm 19.4 19.1 14.4 73 2.9 S 9 20 5 11 - - 0.2
21/08:00pm 19.2 18.8 14.2 73 2.9 S 9 19 5 10 - - 0.2
21/07:30pm 19.3 18.9 14.1 72 3.0 S 9 17 5 9 - - 0.2
21/07:00pm 19.5 19.2 14.3 72 3.0 S 9 19 5 10 - - 0.2
21/06:30pm 19.8 19.7 14.0 69 3.3 S 7 17 4 9 - - 0.2

Latest Capital City Observations: Canberra | Sydney | Melbourne | Brisbane | Adelaide | Perth | Hobart | Darwin

Other Formats:

Comma delimited format used in spreadsheet applications
http://www.bom.gov.au/fwo/IDQ60901/IDQ60901.95566.axf

JavaScript Object Notation format (JSON) in row-major order
http://www.bom.gov.au/fwo/IDQ60901/IDQ60901.95566.json